createdAt,value
2023-09-17T00:02:24.846Z,8.98
2023-09-17T00:04:52.553Z,9.55
2023-09-17T00:07:20.082Z,9.80
2023-09-17T00:09:47.660Z,9.63
2023-09-17T00:12:15.276Z,9.48
2023-09-17T00:14:42.898Z,10.98
2023-09-17T00:17:10.668Z,9.55
2023-09-17T00:19:38.399Z,9.80
2023-09-17T00:22:10.111Z,9.60
2023-09-17T00:24:37.707Z,10.05
2023-09-17T00:27:06.080Z,9.93
2023-09-17T00:29:33.672Z,9.00
2023-09-17T00:32:01.222Z,8.95
2023-09-17T00:34:28.855Z,8.73
2023-09-17T00:36:57.788Z,8.55
2023-09-17T00:39:25.352Z,9.02
2023-09-17T00:41:53.793Z,8.07
2023-09-17T00:44:21.398Z,8.32
2023-09-17T00:46:51.071Z,8.07
2023-09-17T00:49:19.305Z,8.43
2023-09-17T00:51:47.191Z,8.68
2023-09-17T00:54:15.491Z,8.88
2023-09-17T00:56:43.154Z,8.45
2023-09-17T00:59:11.813Z,8.48
2023-09-17T01:01:39.518Z,8.35
2023-09-17T01:04:08.914Z,8.15
2023-09-17T01:06:39.434Z,7.60
2023-09-17T01:09:09.031Z,8.18
2023-09-17T01:11:37.094Z,8.50
2023-09-17T01:14:13.415Z,7.75
2023-09-17T01:16:42.717Z,8.05
2023-09-17T01:19:25.394Z,8.60
2023-09-17T01:22:03.108Z,8.52
2023-09-17T01:24:41.903Z,8.60
2023-09-17T01:27:12.229Z,8.82
2023-09-17T01:29:42.573Z,9.82
2023-09-17T01:32:14.622Z,8.98
2023-09-17T01:34:44.043Z,9.13
2023-09-17T01:37:17.689Z,8.18
2023-09-17T01:39:56.317Z,8.38
2023-09-17T01:42:25.913Z,8.30
2023-09-17T01:44:58.546Z,8.07
2023-09-17T01:47:28.458Z,8.48
2023-09-17T01:49:58.561Z,8.07
2023-09-17T01:52:28.014Z,8.07
2023-09-17T01:54:55.748Z,8.63
2023-09-17T01:57:23.309Z,7.75
2023-09-17T01:59:51.054Z,8.35
2023-09-17T02:02:18.982Z,7.68
2023-09-17T02:04:47.658Z,8.20
2023-09-17T02:07:16.745Z,7.80
2023-09-17T02:09:45.255Z,7.80
2023-09-17T02:12:12.785Z,8.27
2023-09-17T02:14:40.826Z,7.60
2023-09-17T02:17:12.536Z,7.60
2023-09-17T02:19:43.378Z,8.15
2023-09-17T02:22:11.104Z,8.27
2023-09-17T02:24:38.724Z,8.10
2023-09-17T02:27:06.260Z,8.50
2023-09-17T02:29:33.874Z,8.05
2023-09-17T02:32:01.725Z,7.75
2023-09-17T02:34:29.314Z,8.27
2023-09-17T02:36:56.831Z,7.38
2023-09-17T02:39:24.368Z,7.20
2023-09-17T02:41:51.874Z,7.43
2023-09-17T02:44:19.993Z,7.60
2023-09-17T02:46:47.702Z,7.50
2023-09-17T02:49:15.531Z,7.45
2023-09-17T02:51:43.156Z,7.30
2023-09-17T02:54:11.729Z,7.15
2023-09-17T02:56:39.246Z,7.95
2023-09-17T02:59:06.849Z,7.57
2023-09-17T03:01:34.546Z,7.60
2023-09-17T03:04:06.848Z,7.38
2023-09-17T03:06:34.864Z,8.00
2023-09-17T03:09:02.955Z,8.40
2023-09-17T03:11:30.770Z,7.40
2023-09-17T03:14:02.107Z,7.85
2023-09-17T03:16:31.261Z,7.75
2023-09-17T03:18:58.793Z,7.75
2023-09-17T03:21:26.761Z,8.63
2023-09-17T03:23:54.402Z,8.80
2023-09-17T03:26:23.216Z,8.80
2023-09-17T03:28:51.024Z,9.80
2023-09-17T03:31:18.733Z,9.70
2023-09-17T03:33:47.322Z,9.93
2023-09-17T03:36:16.463Z,9.13
2023-09-17T03:38:44.104Z,8.57
2023-09-17T03:41:11.972Z,8.60
2023-09-17T03:43:40.205Z,8.32
2023-09-17T03:46:07.916Z,7.85
2023-09-17T03:48:35.450Z,7.72
2023-09-17T03:51:05.855Z,7.57
2023-09-17T03:53:34.120Z,7.60
2023-09-17T03:56:01.945Z,8.15
2023-09-17T03:58:31.348Z,8.30
2023-09-17T04:00:58.882Z,8.23
2023-09-17T04:03:26.762Z,7.53
2023-09-17T04:05:54.961Z,7.63
2023-09-17T04:08:23.241Z,8.30
2023-09-17T04:10:56.407Z,8.50
2023-09-17T04:13:24.107Z,7.57
2023-09-17T04:15:51.928Z,7.85
2023-09-17T04:18:19.419Z,8.15
2023-09-17T04:20:48.850Z,8.60
2023-09-17T04:23:17.249Z,8.15
2023-09-17T04:25:45.391Z,7.70
2023-09-17T04:28:13.276Z,8.05
2023-09-17T04:30:40.980Z,7.75
2023-09-17T04:33:09.154Z,7.90
2023-09-17T04:35:37.810Z,7.88
2023-09-17T04:38:05.534Z,7.45
2023-09-17T04:40:33.796Z,7.88
2023-09-17T04:43:05.480Z,7.68
2023-09-17T04:45:36.613Z,8.23
2023-09-17T04:48:11.644Z,8.20
2023-09-17T04:50:46.344Z,8.35
2023-09-17T04:53:16.030Z,8.73
2023-09-17T04:55:45.718Z,7.72
2023-09-17T04:58:15.519Z,8.77
2023-09-17T05:00:45.355Z,10.10
2023-09-17T05:03:13.148Z,10.90
2023-09-17T05:05:41.682Z,10.38
2023-09-17T05:08:09.424Z,8.63
2023-09-17T05:10:37.212Z,8.38
2023-09-17T05:13:06.916Z,9.13
2023-09-17T05:15:35.658Z,9.63
2023-09-17T05:18:10.777Z,9.70
2023-09-17T05:20:45.190Z,9.38
2023-09-17T05:23:13.030Z,9.07
2023-09-17T05:25:41.443Z,9.75
2023-09-17T05:28:10.617Z,11.00
2023-09-17T05:30:41.690Z,12.88
2023-09-17T05:33:10.346Z,14.73
2023-09-17T05:35:42.133Z,13.38
2023-09-17T05:38:10.034Z,12.18
2023-09-17T05:40:37.947Z,11.93
2023-09-17T05:43:05.740Z,10.93
2023-09-17T05:45:34.413Z,10.93
2023-09-17T05:48:02.830Z,9.55
2023-09-17T05:50:30.987Z,10.57
2023-09-17T05:52:58.649Z,9.80
2023-09-17T05:55:26.736Z,9.80
2023-09-17T05:57:56.336Z,9.60
2023-09-17T06:00:24.252Z,8.23
2023-09-17T06:02:51.751Z,7.22
2023-09-17T06:05:19.828Z,7.80
2023-09-17T06:07:47.387Z,8.05
2023-09-17T06:10:17.105Z,7.88
2023-09-17T06:12:44.652Z,7.18
2023-09-17T06:15:13.105Z,6.57
2023-09-17T06:17:44.850Z,6.63
2023-09-17T06:20:12.500Z,6.40
2023-09-17T06:22:40.078Z,5.95
2023-09-17T06:25:07.978Z,5.55
2023-09-17T06:27:36.363Z,5.57
2023-09-17T06:30:04.863Z,5.43
2023-09-17T06:32:33.274Z,5.38
2023-09-17T06:35:01.048Z,5.20
2023-09-17T06:37:29.377Z,5.38
2023-09-17T06:39:56.937Z,5.32
2023-09-17T06:42:24.515Z,5.35
2023-09-17T06:44:51.987Z,5.60
2023-09-17T06:47:19.737Z,5.18
2023-09-17T06:49:47.334Z,5.30
2023-09-17T06:52:14.935Z,5.15
2023-09-17T06:54:45.662Z,5.00
2023-09-17T06:57:13.124Z,5.55
2023-09-17T06:59:40.613Z,6.07
2023-09-17T07:02:08.192Z,6.18
2023-09-17T07:04:35.801Z,5.93
2023-09-17T07:07:03.507Z,6.18
2023-09-17T07:09:32.970Z,6.68
2023-09-17T07:12:00.508Z,5.75
2023-09-17T07:14:28.077Z,6.22
2023-09-17T07:16:55.847Z,5.82
2023-09-17T07:19:23.664Z,6.40
2023-09-17T07:21:51.305Z,5.35
2023-09-17T07:24:18.825Z,5.45
2023-09-17T07:26:46.332Z,5.50
2023-09-17T07:29:13.881Z,5.63
2023-09-17T07:31:42.775Z,5.50
2023-09-17T07:34:10.275Z,5.70
2023-09-17T07:36:37.768Z,6.22
2023-09-17T07:39:05.449Z,6.05
2023-09-17T07:41:32.973Z,5.53
2023-09-17T07:44:00.656Z,5.93
2023-09-17T07:46:28.455Z,5.90
2023-09-17T07:48:56.041Z,6.15
2023-09-17T07:51:23.557Z,6.00
2023-09-17T07:53:51.226Z,6.57
2023-09-17T07:56:19.727Z,6.47
2023-09-17T07:58:48.404Z,7.00
2023-09-17T08:01:16.207Z,7.65
2023-09-17T08:03:43.804Z,7.20
2023-09-17T08:06:12.593Z,7.80
2023-09-17T08:08:40.161Z,8.73
2023-09-17T08:11:08.273Z,7.30
2023-09-17T08:13:35.942Z,7.75
2023-09-17T08:16:03.795Z,7.30
2023-09-17T08:18:32.150Z,7.38
2023-09-17T08:20:59.830Z,7.75
2023-09-17T08:23:27.852Z,6.38
2023-09-17T08:26:15.328Z,5.35
2023-09-17T08:29:02.979Z,5.47
2023-09-17T08:31:50.463Z,5.35
2023-09-17T08:34:38.155Z,5.53
2023-09-17T08:37:05.811Z,4.97
2023-09-17T08:39:33.764Z,5.25
2023-09-17T08:42:02.094Z,4.53
2023-09-17T08:44:34.733Z,5.38
2023-09-17T08:47:02.398Z,5.38
2023-09-17T08:49:30.258Z,5.40
2023-09-17T08:52:00.460Z,5.57
2023-09-17T08:54:34.884Z,5.13
2023-09-17T08:57:05.038Z,4.78
2023-09-17T08:59:39.306Z,5.50
2023-09-17T09:02:32.885Z,6.22
2023-09-17T09:05:02.302Z,8.30
2023-09-17T09:07:30.526Z,8.57
2023-09-17T09:09:58.600Z,6.72
2023-09-17T09:12:27.699Z,7.65
2023-09-17T09:14:56.298Z,8.00
2023-09-17T09:17:23.919Z,7.70
2023-09-17T09:19:52.006Z,8.63
2023-09-17T09:22:19.509Z,9.68
2023-09-17T09:24:50.435Z,9.55
2023-09-17T09:27:18.215Z,8.90
2023-09-17T09:29:45.838Z,9.10
2023-09-17T09:32:14.123Z,9.25
2023-09-17T09:34:42.894Z,9.50
2023-09-17T09:37:11.197Z,10.57
2023-09-17T09:39:39.672Z,9.57
2023-09-17T09:42:09.727Z,10.00
2023-09-17T09:44:37.549Z,9.50
2023-09-17T09:47:05.867Z,9.60
2023-09-17T09:49:44.098Z,10.23
2023-09-17T09:52:13.293Z,10.10
2023-09-17T09:54:45.291Z,8.98
2023-09-17T09:57:14.421Z,10.32
2023-09-17T09:59:49.488Z,10.38
2023-09-17T10:02:21.628Z,9.90
2023-09-17T10:04:49.821Z,10.73
2023-09-17T10:07:18.647Z,11.48
2023-09-17T10:09:47.480Z,10.25
2023-09-17T10:12:15.619Z,10.35
2023-09-17T10:14:43.808Z,8.93
2023-09-17T10:17:12.386Z,10.07
2023-09-17T10:19:41.818Z,9.85
2023-09-17T10:22:11.137Z,8.93
2023-09-17T10:24:40.091Z,10.23
2023-09-17T10:27:09.035Z,10.07
2023-09-17T10:29:39.418Z,9.70
2023-09-17T10:32:11.026Z,10.43
2023-09-17T10:34:40.577Z,10.85
2023-09-17T10:37:09.018Z,9.77
2023-09-17T10:39:37.804Z,9.68
2023-09-17T10:42:07.585Z,9.88
2023-09-17T10:44:38.011Z,9.10
2023-09-17T10:47:10.923Z,8.68
2023-09-17T10:49:40.091Z,9.32
2023-09-17T10:52:09.128Z,9.27
2023-09-17T10:54:37.040Z,9.23
2023-09-17T10:57:28.270Z,9.90
2023-09-17T10:59:58.930Z,9.10
2023-09-17T11:02:30.186Z,9.00
2023-09-17T11:04:58.835Z,10.68
2023-09-17T11:07:27.257Z,11.43
2023-09-17T11:09:56.925Z,23.02
2023-09-17T11:12:25.172Z,13.40
2023-09-17T11:14:52.910Z,11.57
2023-09-17T11:17:30.773Z,11.25
2023-09-17T11:19:58.973Z,10.60
2023-09-17T11:22:31.064Z,10.80
2023-09-17T11:24:58.703Z,10.63
2023-09-17T11:27:44.781Z,12.43
2023-09-17T11:30:27.559Z,14.27
2023-09-17T11:32:55.770Z,13.20
2023-09-17T11:35:25.926Z,12.23
2023-09-17T11:37:53.730Z,11.38
2023-09-17T11:40:21.424Z,12.63
2023-09-17T11:42:49.173Z,12.80
2023-09-17T11:45:17.221Z,12.57
2023-09-17T11:47:45.590Z,11.82
2023-09-17T11:50:14.918Z,12.90
2023-09-17T11:52:43.208Z,12.63
2023-09-17T11:55:23.269Z,12.13
2023-09-17T11:57:51.040Z,11.15
2023-09-17T12:00:29.715Z,11.50
2023-09-17T12:02:57.475Z,11.25
2023-09-17T12:05:25.093Z,11.85
2023-09-17T12:07:55.618Z,14.35
2023-09-17T12:10:30.611Z,12.00
2023-09-17T12:13:17.489Z,11.60
2023-09-17T12:15:46.911Z,12.27
2023-09-17T12:18:14.648Z,11.95
2023-09-17T12:21:00.326Z,11.98
2023-09-17T12:24:03.963Z,11.85
2023-09-17T12:27:10.326Z,11.57
2023-09-17T12:29:47.519Z,11.50
2023-09-17T12:32:18.158Z,12.05
2023-09-17T12:34:45.787Z,12.43
2023-09-17T12:37:13.562Z,11.70
2023-09-17T12:39:44.397Z,12.00
2023-09-17T12:42:12.000Z,12.85
2023-09-17T12:44:40.156Z,13.55
2023-09-17T12:47:08.316Z,12.07
2023-09-17T12:49:36.401Z,12.85
2023-09-17T12:52:05.022Z,13.27
2023-09-17T12:54:32.942Z,13.65
2023-09-17T12:57:01.060Z,13.75
2023-09-17T12:59:33.032Z,13.05
2023-09-17T13:02:04.754Z,12.75
2023-09-17T13:04:45.390Z,13.07
2023-09-17T13:07:18.279Z,12.48
2023-09-17T13:12:19.285Z,13.45
2023-09-17T13:14:49.312Z,13.20
2023-09-17T13:17:17.499Z,13.23
2023-09-17T13:19:45.284Z,14.02
2023-09-17T13:22:15.614Z,13.35
2023-09-17T13:24:46.196Z,13.88
2023-09-17T13:27:18.423Z,12.98
2023-09-17T13:29:50.876Z,12.40
2023-09-17T13:32:20.018Z,12.88
2023-09-17T13:34:48.532Z,13.30
2023-09-17T13:37:17.601Z,13.27
2023-09-17T13:39:47.722Z,13.07
2023-09-17T13:42:15.367Z,14.00
2023-09-17T13:44:42.891Z,13.30
2023-09-17T13:47:12.926Z,13.02
2023-09-17T13:49:44.084Z,13.18
2023-09-17T13:52:12.103Z,13.18
2023-09-17T13:54:40.397Z,13.57
2023-09-17T13:57:08.259Z,13.90
2023-09-17T13:59:36.042Z,13.25
2023-09-17T14:02:05.126Z,13.90
2023-09-17T14:04:34.275Z,13.45
2023-09-17T14:07:02.666Z,13.80
2023-09-17T14:09:30.374Z,13.23
2023-09-17T14:11:58.138Z,14.27
2023-09-17T14:14:25.792Z,13.75
2023-09-17T14:16:53.414Z,14.82
2023-09-17T14:19:20.977Z,14.02
2023-09-17T14:21:48.950Z,14.68
2023-09-17T14:24:16.920Z,15.23
2023-09-17T14:26:44.999Z,16.17
2023-09-17T14:29:13.017Z,15.77
2023-09-17T14:31:44.124Z,15.70
2023-09-17T14:34:12.410Z,16.35
2023-09-17T14:36:40.381Z,16.02
2023-09-17T14:39:10.729Z,16.08
2023-09-17T14:41:40.184Z,14.90
2023-09-17T14:44:08.459Z,15.20
2023-09-17T14:46:39.628Z,15.63
2023-09-17T14:49:07.959Z,15.75
2023-09-17T14:51:35.800Z,15.43
2023-09-17T14:54:04.921Z,15.10
2023-09-17T14:56:32.564Z,14.82
2023-09-17T14:59:00.145Z,14.15
2023-09-17T15:01:56.808Z,14.40
2023-09-17T15:04:15.986Z,14.38
2023-09-17T15:06:43.580Z,14.43
2023-09-17T15:09:11.394Z,14.55
2023-09-17T15:11:38.903Z,14.45
2023-09-17T15:14:06.681Z,15.10
2023-09-17T15:16:34.517Z,14.48
2023-09-17T15:19:02.370Z,15.07
2023-09-17T15:21:29.961Z,15.77
2023-09-17T15:23:57.502Z,16.30
2023-09-17T15:26:26.638Z,15.80
2023-09-17T15:28:54.505Z,17.10
2023-09-17T15:31:22.729Z,15.40
2023-09-17T15:33:50.679Z,16.83
2023-09-17T15:36:18.513Z,16.30
2023-09-17T15:38:46.294Z,17.17
2023-09-17T15:41:13.902Z,16.95
2023-09-17T15:43:42.516Z,16.60
2023-09-17T15:46:10.421Z,16.45
2023-09-17T15:48:38.052Z,16.23
2023-09-17T15:51:06.267Z,16.73
2023-09-17T15:53:36.750Z,17.08
2023-09-17T15:56:04.616Z,16.45
2023-09-17T15:58:32.199Z,16.60
2023-09-17T16:00:59.811Z,18.08
2023-09-17T16:03:27.663Z,17.40
2023-09-17T16:05:55.747Z,17.20
2023-09-17T16:08:23.690Z,17.38
2023-09-17T16:10:51.414Z,16.92
2023-09-17T16:13:21.769Z,17.48
2023-09-17T16:15:52.381Z,17.50
2023-09-17T16:18:20.062Z,17.27
2023-09-17T16:20:48.717Z,16.88
2023-09-17T16:23:17.410Z,18.02
2023-09-17T16:25:45.082Z,17.05
2023-09-17T16:28:12.774Z,17.08
2023-09-17T16:30:40.509Z,17.85
2023-09-17T16:33:08.372Z,18.00
2023-09-17T16:35:36.203Z,17.77
2023-09-17T16:38:04.048Z,18.00
2023-09-17T16:40:33.819Z,18.88
2023-09-17T16:43:09.014Z,18.65
2023-09-17T16:45:38.553Z,18.63
2023-09-17T16:48:06.774Z,19.10
2023-09-17T16:50:34.754Z,20.50
2023-09-17T16:53:02.470Z,20.58
2023-09-17T16:55:31.888Z,19.77
2023-09-17T16:57:59.476Z,19.98
2023-09-17T17:00:32.655Z,21.90
2023-09-17T17:03:01.405Z,20.90
2023-09-17T17:05:29.062Z,22.05
2023-09-17T17:07:58.346Z,22.65
2023-09-17T17:10:26.881Z,22.05
2023-09-17T17:12:54.782Z,22.65
2023-09-17T17:15:22.483Z,23.00
2023-09-17T17:17:50.156Z,23.25
2023-09-17T17:20:17.785Z,23.45
2023-09-17T17:22:49.359Z,23.42
2023-09-17T17:25:17.447Z,23.95
2023-09-17T17:27:47.249Z,24.25
2023-09-17T17:30:14.934Z,24.05
2023-09-17T17:32:43.760Z,24.33
2023-09-17T17:35:12.643Z,25.48
2023-09-17T17:37:40.756Z,25.83
2023-09-17T17:40:13.096Z,24.02
2023-09-17T17:42:40.690Z,26.33
2023-09-17T17:45:08.793Z,25.55
2023-09-17T17:47:36.817Z,25.73
2023-09-17T17:50:05.130Z,26.23
2023-09-17T17:52:33.631Z,26.10
2023-09-17T17:55:01.642Z,26.33
2023-09-17T17:57:29.678Z,26.73
2023-09-17T17:59:57.964Z,27.23
2023-09-17T18:02:25.717Z,25.80
2023-09-17T18:04:53.473Z,26.30
2023-09-17T18:07:22.307Z,26.95
2023-09-17T18:09:49.913Z,27.05
2023-09-17T18:12:17.653Z,27.08
2023-09-17T18:14:46.086Z,26.85
2023-09-17T18:17:14.042Z,27.83
2023-09-17T18:19:41.700Z,28.23
2023-09-17T18:22:09.500Z,29.50
2023-09-17T18:24:38.688Z,28.27
2023-09-17T18:27:06.559Z,27.98
2023-09-17T18:29:34.374Z,26.42
2023-09-17T18:32:02.366Z,28.02
2023-09-17T18:34:30.692Z,26.75
2023-09-17T18:36:58.384Z,28.73
2023-09-17T18:39:29.847Z,30.65
2023-09-17T18:42:00.601Z,28.70
2023-09-17T18:44:30.148Z,27.52
2023-09-17T18:47:00.881Z,27.08
2023-09-17T18:49:28.721Z,28.35
2023-09-17T18:51:56.318Z,28.17
2023-09-17T18:54:24.365Z,29.23
2023-09-17T18:56:52.549Z,29.30
2023-09-17T18:59:20.243Z,29.55
2023-09-17T19:01:48.227Z,29.92
2023-09-17T19:04:16.095Z,28.67
2023-09-17T19:06:44.470Z,29.10
2023-09-17T19:09:12.308Z,30.05
2023-09-17T19:11:40.312Z,29.67
2023-09-17T19:14:08.442Z,29.50
2023-09-17T19:16:36.549Z,29.00
2023-09-17T19:19:04.370Z,29.35
2023-09-17T19:21:32.208Z,29.02
2023-09-17T19:24:00.910Z,29.13
2023-09-17T19:26:31.161Z,29.80
2023-09-17T19:29:00.180Z,29.48
2023-09-17T19:31:28.154Z,28.75
2023-09-17T19:33:56.061Z,27.15
2023-09-17T19:36:24.421Z,28.63
2023-09-17T19:38:54.530Z,27.17
2023-09-17T19:41:22.645Z,26.95
2023-09-17T19:43:50.761Z,26.35
2023-09-17T19:46:20.921Z,26.30
2023-09-17T19:48:49.345Z,27.13
2023-09-17T19:51:17.413Z,26.20
2023-09-17T19:53:45.262Z,26.70
2023-09-17T19:56:13.128Z,27.30
2023-09-17T19:58:40.948Z,27.63
2023-09-17T20:01:08.981Z,25.10
2023-09-17T20:03:37.036Z,25.38
2023-09-17T20:06:05.787Z,25.67
2023-09-17T20:08:33.328Z,25.30
2023-09-17T20:11:01.796Z,26.40
2023-09-17T20:13:29.411Z,25.77
2023-09-17T20:15:57.021Z,26.38
2023-09-17T20:18:24.667Z,24.05
2023-09-17T20:20:54.573Z,25.98
2023-09-17T20:23:22.691Z,24.90
2023-09-17T20:25:50.520Z,25.33
2023-09-17T20:28:18.722Z,25.20
2023-09-17T20:30:51.966Z,25.05
2023-09-17T20:33:21.439Z,26.17
2023-09-17T20:35:50.221Z,25.02
2023-09-17T20:38:18.508Z,25.15
2023-09-17T20:40:46.205Z,24.73
2023-09-17T20:43:14.233Z,25.48
2023-09-17T20:45:41.862Z,25.42
2023-09-17T20:48:09.877Z,23.42
2023-09-17T20:50:37.708Z,22.98
2023-09-17T20:53:05.234Z,23.25
2023-09-17T20:55:32.865Z,24.98
2023-09-17T20:58:00.443Z,24.13
2023-09-17T21:00:28.027Z,24.42
2023-09-17T21:02:57.834Z,23.52
2023-09-17T21:05:26.219Z,24.10
2023-09-17T21:07:53.805Z,23.73
2023-09-17T21:10:22.542Z,23.92
2023-09-17T21:12:51.305Z,23.65
2023-09-17T21:15:19.237Z,23.42
2023-09-17T21:17:46.774Z,22.88
2023-09-17T21:20:20.470Z,24.27
2023-09-17T21:22:49.434Z,23.20
2023-09-17T21:25:17.593Z,22.67
2023-09-17T21:27:45.359Z,22.13
2023-09-17T21:30:13.806Z,21.48
2023-09-17T21:32:43.875Z,21.38
2023-09-17T21:35:12.922Z,21.88
2023-09-17T21:37:40.515Z,21.85
2023-09-17T21:40:09.003Z,20.67
2023-09-17T21:42:37.198Z,22.60
2023-09-17T21:45:06.696Z,21.73
2023-09-17T21:47:34.228Z,20.38
2023-09-17T21:50:02.182Z,21.50
2023-09-17T21:52:30.705Z,21.92
2023-09-17T21:54:58.768Z,21.13
2023-09-17T21:57:26.504Z,22.05
2023-09-17T21:59:55.244Z,20.45
2023-09-17T22:02:22.957Z,20.77
2023-09-17T22:04:50.645Z,19.92
2023-09-17T22:07:18.665Z,19.92
2023-09-17T22:09:46.249Z,20.42
2023-09-17T22:12:15.434Z,19.80
2023-09-17T22:14:43.123Z,19.65
2023-09-17T22:17:11.765Z,20.20
2023-09-17T22:19:49.959Z,20.20
2023-09-17T22:22:17.646Z,19.90
2023-09-17T22:24:45.408Z,20.77
2023-09-17T22:27:15.682Z,20.35
2023-09-17T22:29:43.837Z,19.27
2023-09-17T22:32:11.983Z,19.10
2023-09-17T22:34:39.590Z,20.38
2023-09-17T22:37:07.343Z,18.50
2023-09-17T22:39:39.288Z,17.77
2023-09-17T22:42:06.854Z,17.58
2023-09-17T22:44:36.993Z,16.90
2023-09-17T22:47:07.203Z,16.73
2023-09-17T22:49:36.963Z,16.02
2023-09-17T22:52:06.319Z,16.05
2023-09-17T22:54:33.885Z,15.70
2023-09-17T22:57:01.389Z,15.45
2023-09-17T22:59:28.965Z,16.38
2023-09-17T23:01:56.755Z,15.07
2023-09-17T23:04:24.379Z,14.63
2023-09-17T23:06:51.939Z,13.98
2023-09-17T23:09:19.443Z,14.68
2023-09-17T23:11:47.085Z,14.77
2023-09-17T23:14:15.080Z,14.38
2023-09-17T23:16:42.704Z,13.73
2023-09-17T23:19:10.351Z,15.35
2023-09-17T23:21:38.268Z,15.02
2023-09-17T23:24:06.954Z,15.05
2023-09-17T23:26:35.313Z,14.02
2023-09-17T23:29:04.855Z,14.57
2023-09-17T23:31:37.012Z,15.27
2023-09-17T23:34:09.189Z,15.52
2023-09-17T23:36:36.831Z,14.48
2023-09-17T23:39:04.658Z,15.15
2023-09-17T23:41:32.548Z,14.77
2023-09-17T23:44:00.269Z,16.50
2023-09-17T23:46:27.871Z,15.02
2023-09-17T23:48:55.374Z,15.27
2023-09-17T23:51:22.957Z,14.68
2023-09-17T23:53:50.473Z,14.32
2023-09-17T23:56:18.263Z,14.30
2023-09-17T23:58:46.036Z,14.05
